Hovedside
METAR-TAF:

METAR-TAF

Lufthavner :

Mosjøen lufthavn. Kjærstad

Mosjøen, Norge

breddegrad: 65-48N, lengdegrad: 013-08E, høyde over havet: 70 m

Gjeldene værobservasjon

Denne rapporten ble laget for 36 minutter siden, klokken 12:50 UTC
Vind 9 kt fra skiftende retning med vindkast opp mot 23 kt
Temperatur 6°C
Luftfuktighet 75%
Trykk 996 hPa
Sikt: 6000 m
Få skyer i en høyde av 1700 ft
Brutte skyer i en høyde av 2600 ft
regnbyger

METAR: ENMS 231250Z VRB09G23KT 6000 SHRA FEW017 BKN026 06/02 Q0996 RMK WIND 412FT 22013G27KT 180V250

Tid: 14:26 (13:26 UTC)


TAF: fraværende

Værobservasjoner og værvarsel for over 4000 flyplasser (METAR- og TAF-rapporter).

Tilgjengelige stasjoner er representert av de røde og gule prikkene på kartet.

Hold musepekeren over prikken for å se navnet på stasjonen.

Klikk så for å se værobservasjoner og -varsler.

For å forandre kartet kan du klikke på den grønne knappen med svart kryss for å zoome inn, på den grønne knappen med strek for å zoome ut, eller på de grønne pilene for å se tilstøtende kart.


METAR-TAF: